Subscribe: coolwx.com/extreme
http://coolwx.com/extreme/rss.xml
Added By: Feedage Forager Feedage Grade B rated
Language: English
Tags:
hours °c  hours  maximum temperature  maximum  metar  minimum temperature  past hours  past  reported airport  rmk  temperature  °c °f  °c  °f 
Rate this Feed
Rate this feedRate this feedRate this feedRate this feedRate this feed
Rate this feed 1 starRate this feed 2 starRate this feed 3 starRate this feed 4 starRate this feed 5 star

Comments (0)

Feed Details and Statistics Feed Statistics
Preview: coolwx.com/extreme

coolwx.com/extreme



The recent global weather extremes



 



Last Reported Airport Tornado/Funnel Cloud/Waterspout
Argyle International Airport, St. Vincent/Grenadines: 2100Z 14 Nov 2017
METAR: TVSA 142100Z 08008KT 9999 FC BKN016 28/25 Q1008 FC SSE



Last Reported Airport Hail:
Petersburg, AK, United States: 1808Z 22 Nov 2017
METAR: PAPG 221808Z 07003KT 3SM -SN BR FEW010 BKN016 OVC027 M01/M01 A2947 RMK AO2 UPE1759RAB01E02SNB1759GSB07E08 -SN GS GSB05 P0002



Maximum Temperature since March 2007:
54°C (129.2°F): Ahwaz,Iran: 1230Z 29 Jun 2017
METAR: OIAW 291230Z 23002KT CAVOK 54/22 Q0993



Maximum Temperature past 3 Hours:
40°C (104.0°F): Carnarvon,Australia
METAR: YCAR 230300Z AUTO 11011KT 9999 // NCD 40/M02 Q1006



Minimum Temperature since March 2007:
-78°C (-108.4°F): Amundsen-Scott Stn,Antarctica: 1750Z 07 Jun 2013
METAR: NZSP 031150Z 14011KT 9999 SKC M78/ A2819 RMK CLN AIR 14007KT ALL WNDS GRID



Minimum Temperature past 3 Hours:
-38°C (-36.4°F): Jakutsk,Russia
METAR: UEEE 230130Z 00000MPS 0650 0500NE R23L/0650N FG NSC M38/M42 Q1018 R23L/490150 NOSIG RMK QFE755



Maximum Dewpoint past 3 Hours:
27°C (80.6°F): Kudat,Malaysia
METAR: WBKT 230300Z 09005KT 010V160 9999 SCT014 BKN270 31/27 Q1008



Maximum Wind past 3 Hours:
70kt (36m/s): Bronnoysund / Bronnoy,Norway